Time;durP1;ratioP1;P1;durP2;ratioP2;P2;SDS_P1;SDS_P2;PMS_P1;PMS_P2;Temp;Humidity;BMP_temperature;BMP_pressure;BME280_temperature;BME280_humidity;BME280_pressure;Samples;Min_cycle;Max_cycle;Signal;HPM_P1;HPM_P2
2021/04/27 00:00:59;;;;;;;5.60;2.00;;;5.40;69.50;;;;;;4981100;28;20558;-62
2021/04/27 00:03:29;;;;;;;2.70;2.00;;;5.40;69.50;;;;;;4981484;28;20423;-62
2021/04/27 00:05:58;;;;;;;2.20;2.00;;;5.30;69.40;;;;;;4984549;28;20436;-61
2021/04/27 00:08:26;;;;;;;2.77;1.77;;;5.20;70.20;;;;;;4986583;28;20627;-62
2021/04/27 00:10:53;;;;;;;2.53;1.80;;;5.20;70.20;;;;;;4986386;28;20835;-64
2021/04/27 00:13:22;;;;;;;3.30;1.90;;;5.30;70.40;;;;;;4986749;28;20450;-61
2021/04/27 00:15:49;;;;;;;2.40;1.92;;;5.20;70.60;;;;;;4985615;28;20428;-61
2021/04/27 00:18:16;;;;;;;2.90;1.80;;;5.10;70.50;;;;;;4985353;28;20455;-61
2021/04/27 00:20:44;;;;;;;3.40;1.80;;;5.10;71.00;;;;;;4965151;28;20420;-61
2021/04/27 00:23:13;;;;;;;2.58;2.00;;;5.10;71.70;;;;;;4981819;28;20423;-61
2021/04/27 00:25:42;;;;;;;3.67;1.90;;;5.00;71.40;;;;;;4984077;28;20451;-61
2021/04/27 00:28:10;;;;;;;6.22;2.28;;;5.00;71.30;;;;;;4985453;28;20420;-61
2021/04/27 00:30:39;;;;;;;3.70;2.10;;;5.00;71.80;;;;;;4984634;28;20423;-62
2021/04/27 00:33:08;;;;;;;6.57;2.08;;;5.00;72.50;;;;;;4985490;28;20519;-62
2021/04/27 00:35:36;;;;;;;4.25;2.00;;;4.90;72.20;;;;;;4986149;28;20420;-61
2021/04/27 00:40:57;;;;;;;5.45;2.90;;;5.00;71.90;;;;;;4967446;28;20424;-62
2021/04/27 00:43:24;;;;;;;3.50;2.00;;;4.90;71.80;;;;;;4985492;28;20416;-61
2021/04/27 00:45:56;;;;;;;3.10;1.85;;;4.90;72.10;;;;;;4983010;28;20933;-61
2021/04/27 00:48:24;;;;;;;2.90;1.77;;;4.90;72.80;;;;;;4967902;28;20491;-64
2021/04/27 00:50:55;;;;;;;3.67;2.08;;;4.80;73.10;;;;;;4985563;28;20780;-61
2021/04/27 00:53:23;;;;;;;2.88;1.70;;;4.80;73.20;;;;;;4984931;28;20764;-62
2021/04/27 00:55:51;;;;;;;3.85;1.90;;;4.80;73.60;;;;;;4985975;28;20427;-61
2021/04/27 00:58:21;;;;;;;2.75;2.25;;;4.70;73.60;;;;;;4968003;28;20412;-61
2021/04/27 01:03:44;;;;;;;3.07;2.00;;;4.80;72.90;;;;;;4967715;28;20448;-62
2021/04/27 01:06:14;;;;;;;5.90;2.05;;;4.80;73.30;;;;;;4968568;28;20420;-62
2021/04/27 01:08:50;;;;;;;3.67;1.90;;;4.70;73.30;;;;;;5000356;28;20759;-61
2021/04/27 01:11:28;;;;;;;5.00;1.88;;;4.70;73.40;;;;;;4985488;28;20439;-62
2021/04/27 01:14:03;;;;;;;3.13;1.98;;;4.70;73.90;;;;;;4985130;28;20432;-62
2021/04/27 01:16:37;;;;;;;3.40;1.80;;;4.60;74.10;;;;;;4966740;28;20424;-61
2021/04/27 01:19:09;;;;;;;4.13;1.70;;;4.60;74.10;;;;;;5000012;28;20958;-62
2021/04/27 01:21:41;;;;;;;3.17;2.30;;;4.60;74.50;;;;;;4967166;28;20849;-62
2021/04/27 01:24:34;;;;;;;3.88;2.10;;;4.70;73.90;;;;;;4985047;28;20460;-62
2021/04/27 01:27:05;;;;;;;2.10;1.73;;;4.60;73.70;;;;;;4985384;28;20452;-61
2021/04/27 01:29:34;;;;;;;3.40;1.80;;;4.60;73.90;;;;;;4984408;28;20420;-61
2021/04/27 01:32:05;;;;;;;2.47;1.83;;;4.60;74.30;;;;;;4982802;28;20436;-61
2021/04/27 01:34:36;;;;;;;3.00;2.00;;;4.50;74.60;;;;;;4961256;28;20419;-62
2021/04/27 01:37:09;;;;;;;3.38;2.17;;;4.40;75.40;;;;;;4965773;28;20510;-61
2021/04/27 01:39:40;;;;;;;4.20;2.00;;;4.40;75.00;;;;;;4968357;28;20427;-61
2021/04/27 01:42:12;;;;;;;2.53;1.80;;;4.50;75.10;;;;;;4985497;28;20420;-62
2021/04/27 01:44:44;;;;;;;2.90;2.20;;;4.50;74.60;;;;;;4968004;28;20506;-61
2021/04/27 01:47:13;;;;;;;2.90;1.85;;;4.50;74.40;;;;;;4981579;28;20452;-62
2021/04/27 01:49:43;;;;;;;3.20;2.30;;;4.40;74.70;;;;;;4984354;28;20421;-61
2021/04/27 01:52:30;;;;;;;2.70;2.00;;;4.50;74.30;;;;;;4983076;28;20424;-62
2021/04/27 01:55:01;;;;;;;3.50;1.80;;;4.50;74.70;;;;;;4997538;28;20421;-63
2021/04/27 01:57:30;;;;;;;2.60;2.10;;;4.50;74.30;;;;;;4963000;28;20447;-63
2021/04/27 02:00:00;;;;;;;3.90;1.90;;;4.50;74.60;;;;;;4979499;28;20416;-64
2021/04/27 02:02:54;;;;;;;3.63;2.17;;;4.40;74.80;;;;;;4963525;28;20888;-62
2021/04/27 02:06:00;;;;;;;5.32;2.17;;;4.50;73.80;;;;;;4980574;28;20428;-62
2021/04/27 02:08:30;;;;;;;3.20;2.25;;;4.40;73.60;;;;;;4963198;28;20470;-62
2021/04/27 02:11:03;;;;;;;3.97;1.90;;;4.50;74.00;;;;;;4963412;28;20496;-65
2021/04/27 02:13:33;;;;;;;3.47;1.83;;;4.50;74.30;;;;;;4965674;28;20424;-60
2021/04/27 02:16:05;;;;;;;3.42;1.90;;;4.50;73.40;;;;;;4966199;28;20486;-62
2021/04/27 02:18:39;;;;;;;2.92;1.70;;;4.50;73.30;;;;;;4999381;28;20420;-62
2021/04/27 02:21:13;;;;;;;3.20;2.00;;;4.40;73.50;;;;;;4984895;28;20452;-62
2021/04/27 02:24:01;;;;;;;3.13;1.70;;;4.50;73.70;;;;;;4982573;28;20428;-62
2021/04/27 02:26:34;;;;;;;3.05;1.70;;;4.40;73.30;;;;;;4963097;28;20412;-62
2021/04/27 02:29:16;;;;;;;2.10;1.52;;;4.30;73.40;;;;;;4966793;28;20423;-62
2021/04/27 02:31:46;;;;;;;4.30;1.90;;;4.20;74.80;;;;;;4947339;29;20416;-62
2021/04/27 02:34:19;;;;;;;4.13;2.10;;;4.20;74.70;;;;;;4944727;29;20424;-62
2021/04/27 02:36:48;;;;;;;3.30;1.70;;;4.20;74.20;;;;;;4945155;29;20515;-62
2021/04/27 02:39:43;;;;;;;2.67;1.60;;;4.20;74.80;;;;;;4943883;29;20769;-62
2021/04/27 02:42:12;;;;;;;2.60;2.10;;;4.20;75.10;;;;;;4945224;29;20430;-62
2021/04/27 02:45:00;;;;;;;5.38;2.08;;;4.20;74.70;;;;;;4946681;29;20788;-62
2021/04/27 02:48:08;;;;;;;3.83;2.38;;;4.10;75.80;;;;;;4947325;28;20455;-62
2021/04/27 02:50:41;;;;;;;4.07;1.90;;;4.10;75.60;;;;;;4987304;28;20438;-62
2021/04/27 02:53:13;;;;;;;3.27;2.20;;;4.10;75.90;;;;;;4974016;29;20558;-62
2021/04/27 02:55:42;;;;;;;3.90;2.53;;;4.00;75.40;;;;;;4985766;28;20418;-62
2021/04/27 02:58:12;;;;;;;2.63;1.90;;;4.00;76.90;;;;;;4958219;29;20449;-63
2021/04/27 03:00:45;;;;;;;3.03;1.80;;;3.90;78.00;;;;;;4957727;28;20408;-62
2021/04/27 03:03:37;;;;;;;4.17;2.10;;;3.90;77.10;;;;;;4959329;29;20469;-62
2021/04/27 03:06:07;;;;;;;2.67;1.70;;;3.90;76.80;;;;;;4952532;29;20431;-65
2021/04/27 03:08:44;;;;;;;4.15;2.13;;;3.90;78.10;;;;;;4971072;28;20471;-62
2021/04/27 03:11:13;;;;;;;2.97;1.95;;;3.90;77.40;;;;;;4970156;28;20506;-62
2021/04/27 03:13:43;;;;;;;4.75;2.40;;;3.80;77.30;;;;;;4939129;29;20431;-62
2021/04/27 03:16:14;;;;;;;1.98;1.70;;;3.80;77.20;;;;;;4938113;28;20450;-62
2021/04/27 03:18:44;;;;;;;3.40;2.05;;;3.80;77.30;;;;;;4939151;29;20449;-63
2021/04/27 03:21:12;;;;;;;6.40;2.00;;;3.80;79.10;;;;;;4939325;29;20425;-62
2021/04/27 03:23:43;;;;;;;5.88;2.08;;;3.70;78.80;;;;;;4937507;29;20467;-62
2021/04/27 03:26:13;;;;;;;4.53;1.90;;;3.60;78.20;;;;;;4938521;29;20419;-62
2021/04/27 03:29:07;;;;;;;2.70;2.10;;;3.70;78.50;;;;;;4938579;29;20939;-62
2021/04/27 03:31:42;;;;;;;4.10;2.00;;;3.70;78.20;;;;;;4983603;28;20421;-63
2021/04/27 03:34:11;;;;;;;4.10;2.03;;;3.60;78.90;;;;;;4991575;28;20437;-62
2021/04/27 03:36:40;;;;;;;4.18;2.03;;;3.70;78.40;;;;;;4959001;28;20442;-62
2021/04/27 03:39:08;;;;;;;4.57;2.40;;;3.70;78.40;;;;;;4960590;28;20882;-62
2021/04/27 03:41:37;;;;;;;3.40;2.40;;;3.70;78.20;;;;;;4961575;28;20439;-62
2021/04/27 03:44:05;;;;;;;3.30;2.17;;;3.70;78.40;;;;;;4960497;29;20413;-62
2021/04/27 03:46:36;;;;;;;2.80;2.05;;;3.70;79.30;;;;;;4960001;28;20448;-63
2021/04/27 03:49:06;;;;;;;3.20;2.08;;;3.70;78.70;;;;;;4961096;29;20449;-62
2021/04/27 03:51:34;;;;;;;3.00;2.10;;;3.60;78.70;;;;;;4962148;28;20425;-61
2021/04/27 03:54:08;;;;;;;3.50;1.98;;;3.60;78.40;;;;;;4992485;28;20444;-63
2021/04/27 03:56:40;;;;;;;3.05;1.90;;;3.60;79.30;;;;;;4961938;28;20473;-62
2021/04/27 03:59:10;;;;;;;3.70;2.30;;;3.60;78.60;;;;;;4961873;29;20429;-62
2021/04/27 04:01:39;;;;;;;3.45;2.50;;;3.60;79.60;;;;;;4960788;28;20425;-62
2021/04/27 04:04:11;;;;;;;4.25;2.53;;;3.60;79.70;;;;;;4979706;28;20420;-62
2021/04/27 04:07:14;;;;;;;6.13;2.70;;;3.50;80.50;;;;;;4960620;29;20732;-63
2021/04/27 04:10:12;;;;;;;3.20;2.10;;;3.50;81.00;;;;;;4956001;29;20496;-62
2021/04/27 04:12:45;;;;;;;3.50;2.03;;;3.40;81.30;;;;;;4959331;29;20434;-63
2021/04/27 04:15:19;;;;;;;3.67;2.20;;;3.50;81.40;;;;;;4963817;28;20485;-63
2021/04/27 04:17:54;;;;;;;3.92;2.40;;;3.50;81.20;;;;;;4998192;28;20448;-64
2021/04/27 04:20:25;;;;;;;5.77;2.70;;;3.60;81.30;;;;;;4997860;28;20526;-63
2021/04/27 04:23:12;;;;;;;3.55;2.20;;;3.60;81.10;;;;;;4983723;28;21044;-62
2021/04/27 04:25:44;;;;;;;3.20;2.30;;;3.60;80.70;;;;;;4982538;28;20420;-62
2021/04/27 04:28:18;;;;;;;3.80;2.20;;;3.70;80.50;;;;;;5010128;28;20412;-64
2021/04/27 04:30:55;;;;;;;4.22;2.40;;;3.70;80.50;;;;;;4966596;28;20435;-62
2021/04/27 04:33:44;;;;;;;4.93;2.38;;;3.80;80.20;;;;;;4959044;29;20433;-63
2021/04/27 04:39:50;;;;;;;2.70;2.33;;;4.00;79.40;;;;;;4958926;28;20434;-64
2021/04/27 04:42:41;;;;;;;3.85;2.22;;;4.00;80.10;;;;;;4959228;29;20427;-65
2021/04/27 04:45:30;;;;;;;5.20;2.70;;;4.00;79.00;;;;;;4958433;28;20426;-63
2021/04/27 04:48:20;;;;;;;4.43;2.80;;;4.00;79.50;;;;;;4982465;28;20977;-62
2021/04/27 04:51:09;;;;;;;4.40;2.80;;;4.10;79.30;;;;;;4959684;28;20429;-62
2021/04/27 04:54:02;;;;;;;6.38;3.40;;;4.20;79.40;;;;;;4994249;28;20914;-62
2021/04/27 04:56:31;;;;;;;9.93;3.78;;;4.20;78.90;;;;;;4961974;29;20476;-63
2021/04/27 04:59:00;;;;;;;7.43;2.53;;;4.20;79.00;;;;;;4962273;29;20433;-63
2021/04/27 05:01:29;;;;;;;3.40;2.75;;;4.30;78.50;;;;;;4962189;28;20417;-65
2021/04/27 05:04:19;;;;;;;3.70;2.30;;;4.30;78.20;;;;;;4963253;29;20434;-62
2021/04/27 05:07:14;;;;;;;4.65;2.92;;;4.30;78.10;;;;;;4972363;28;20449;-62
2021/04/27 05:10:02;;;;;;;4.07;2.60;;;4.30;78.20;;;;;;4966883;29;20437;-62
2021/04/27 05:12:41;;;;;;;6.55;3.15;;;4.50;78.90;;;;;;4964758;29;20426;-64
2021/04/27 05:15:17;;;;;;;4.10;2.90;;;4.60;78.40;;;;;;4990569;28;20413;-62
2021/04/27 05:17:46;;;;;;;3.75;2.55;;;4.50;77.60;;;;;;4961141;28;20905;-62
2021/04/27 05:20:16;;;;;;;4.18;2.63;;;4.70;78.10;;;;;;4961643;28;20426;-62
2021/04/27 05:22:49;;;;;;;4.70;3.03;;;4.80;77.20;;;;;;4960509;28;20422;-63
2021/04/27 05:25:22;;;;;;;3.65;2.75;;;4.90;77.50;;;;;;4976728;28;20429;-63
2021/04/27 05:28:12;;;;;;;3.10;2.80;;;5.00;77.30;;;;;;4992169;28;20420;-63
2021/04/27 05:31:04;;;;;;;5.13;2.50;;;5.10;76.80;;;;;;4973972;28;20426;-65
2021/04/27 05:33:35;;;;;;;4.13;2.63;;;5.10;76.50;;;;;;5000736;28;20433;-63
2021/04/27 05:36:04;;;;;;;4.57;3.13;;;5.10;75.60;;;;;;4999825;28;20426;-62
2021/04/27 05:38:35;;;;;;;4.70;3.20;;;5.20;75.50;;;;;;4999677;28;20422;-63
2021/04/27 05:41:08;;;;;;;5.88;2.95;;;5.40;75.90;;;;;;4999027;28;20421;-63
2021/04/27 05:43:35;;;;;;;3.80;2.60;;;5.60;76.00;;;;;;4999808;28;20433;-62
2021/04/27 05:46:04;;;;;;;5.90;2.65;;;5.50;74.30;;;;;;4999212;28;20485;-62
2021/04/27 05:48:32;;;;;;;4.10;2.72;;;5.60;74.10;;;;;;4999985;28;20426;-62
2021/04/27 05:51:05;;;;;;;6.23;2.90;;;5.70;74.40;;;;;;4999581;28;20421;-62
2021/04/27 05:53:34;;;;;;;5.95;3.10;;;5.80;73.70;;;;;;4999933;28;20436;-65
2021/04/27 05:56:06;;;;;;;4.28;3.30;;;6.00;73.50;;;;;;4999992;28;20498;-63
2021/04/27 05:58:35;;;;;;;5.38;3.30;;;6.20;73.10;;;;;;4981788;28;20835;-62
2021/04/27 06:03:59;;;;;;;3.88;3.10;;;7.00;72.50;;;;;;4977802;28;20896;-64
2021/04/27 06:06:35;;;;;;;4.88;2.92;;;7.20;69.40;;;;;;4982892;28;20420;-62
2021/04/27 06:09:22;;;;;;;4.80;2.80;;;6.90;68.80;;;;;;4979590;28;20447;-65
2021/04/27 06:14:55;;;;;;;4.15;3.30;;;7.20;69.20;;;;;;4982506;28;20447;-62
2021/04/27 06:17:24;;;;;;;3.92;2.90;;;7.50;67.90;;;;;;4980868;28;20451;-62
2021/04/27 06:19:54;;;;;;;4.50;3.20;;;8.00;66.60;;;;;;4982403;28;20463;-62
2021/04/27 06:22:31;;;;;;;5.35;3.65;;;8.50;64.00;;;;;;4980762;28;20463;-62
2021/04/27 06:25:04;;;;;;;6.00;3.88;;;8.80;62.00;;;;;;4980709;28;20820;-62
2021/04/27 06:27:33;;;;;;;5.50;3.20;;;9.50;60.20;;;;;;4963117;28;20426;-63
2021/04/27 06:30:06;;;;;;;7.13;3.70;;;10.30;57.60;;;;;;4978834;28;20431;-61
2021/04/27 06:32:35;;;;;;;6.35;4.20;;;10.40;55.10;;;;;;4978340;28;20419;-62
2021/04/27 06:35:06;;;;;;;3.90;3.30;;;11.00;56.00;;;;;;4978719;28;20519;-62
2021/04/27 06:37:34;;;;;;;4.70;4.05;;;10.30;55.00;;;;;;4978225;28;20467;-62
2021/04/27 06:40:08;;;;;;;5.38;3.13;;;9.20;57.30;;;;;;4979484;28;20502;-63
2021/04/27 06:42:39;;;;;;;5.18;3.60;;;9.90;57.30;;;;;;4979155;28;20796;-62
2021/04/27 06:45:08;;;;;;;4.00;3.20;;;10.40;54.40;;;;;;4979544;28;20431;-62
2021/04/27 06:47:37;;;;;;;5.88;3.88;;;10.10;54.50;;;;;;4997839;28;20422;-62
2021/04/27 06:50:07;;;;;;;5.05;3.90;;;9.60;56.40;;;;;;4998760;28;20406;-62
2021/04/27 06:52:36;;;;;;;4.03;3.60;;;10.50;55.70;;;;;;4997807;28;20423;-62
2021/04/27 06:55:05;;;;;;;5.35;3.95;;;10.70;54.40;;;;;;4997584;28;20729;-62
2021/04/27 06:57:33;;;;;;;4.80;3.97;;;10.80;54.10;;;;;;4997732;28;20490;-62
2021/04/27 07:00:01;;;;;;;4.63;3.80;;;11.20;53.80;;;;;;4997228;28;20415;-62
2021/04/27 07:02:29;;;;;;;5.72;4.15;;;10.90;53.30;;;;;;4977287;28;20467;-62
2021/04/27 07:04:57;;;;;;;8.90;4.60;;;11.80;53.00;;;;;;4977164;28;20445;-62
2021/04/27 07:07:25;;;;;;;3.95;3.60;;;12.20;51.40;;;;;;4977208;28;20423;-62
2021/04/27 07:09:55;;;;;;;5.72;4.00;;;12.30;50.60;;;;;;4977370;28;20400;-62
2021/04/27 07:12:25;;;;;;;5.40;3.77;;;13.60;49.50;;;;;;4978333;28;20662;-59
2021/04/27 07:14:54;;;;;;;5.67;4.27;;;14.20;47.00;;;;;;4977617;28;20484;-62
2021/04/27 07:17:23;;;;;;;6.50;3.83;;;14.50;45.60;;;;;;4977938;28;20501;-61
2021/04/27 07:19:51;;;;;;;4.90;3.97;;;14.00;44.80;;;;;;4979085;28;20444;-62
2021/04/27 07:22:18;;;;;;;7.47;2.90;;;12.80;46.20;;;;;;4977042;28;20440;-61
2021/04/27 07:24:46;;;;;;;53.17;19.70;;;12.90;47.70;;;;;;4977571;28;20779;-62
2021/04/27 07:27:14;;;;;;;477.80;194.33;;;13.40;46.80;;;;;;4977504;28;20963;-60
2021/04/27 07:29:42;;;;;;;662.13;614.33;;;14.90;47.70;;;;;;4978290;28;20456;-61
2021/04/27 07:32:12;;;;;;;727.77;666.57;;;15.10;43.30;;;;;;4955576;28;20418;-61
2021/04/27 07:34:41;;;;;;;786.72;715.92;;;14.70;43.90;;;;;;4958000;28;20874;-64
2021/04/27 07:37:10;;;;;;;854.85;785.33;;;14.70;44.00;;;;;;4957017;28;20831;-61
2021/04/27 07:39:38;;;;;;;899.53;847.78;;;15.00;43.90;;;;;;4956925;29;20802;-63
2021/04/27 07:42:06;;;;;;;952.05;894.35;;;15.60;42.90;;;;;;4956127;29;20413;-64
2021/04/27 07:44:34;;;;;;;1010.95;932.65;;;16.70;41.70;;;;;;4956357;28;20422;-61
2021/04/27 07:47:01;;;;;;;964.10;897.40;;;16.60;40.80;;;;;;4956046;28;20422;-62
2021/04/27 07:49:28;;;;;;;892.85;817.63;;;14.70;42.40;;;;;;4956222;28;20445;-61
2021/04/27 07:51:57;;;;;;;978.72;898.63;;;15.70;43.90;;;;;;4956203;28;20425;-61
2021/04/27 07:54:25;;;;;;;1018.55;938.17;;;16.60;41.60;;;;;;4956986;28;20425;-61
2021/04/27 07:56:53;;;;;;;695.20;624.13;;;16.80;41.20;;;;;;4957894;29;20206;-60
2021/04/27 07:59:21;;;;;;;702.00;630.80;;;17.20;39.90;;;;;;4988960;28;20420;-61
2021/04/27 08:01:49;;;;;;;627.13;558.50;;;18.60;38.30;;;;;;4956869;28;20825;-60
2021/04/27 08:04:16;;;;;;;604.87;516.53;;;17.20;37.70;;;;;;4957958;29;20425;-61
2021/04/27 08:06:44;;;;;;;604.10;504.67;;;16.60;39.40;;;;;;4957912;29;20558;-61
2021/04/27 08:09:12;;;;;;;526.70;471.23;;;16.30;40.40;;;;;;4958466;29;20449;-60
2021/04/27 08:11:40;;;;;;;569.37;408.17;;;15.30;41.00;;;;;;4957937;29;20468;-61
2021/04/27 08:14:08;;;;;;;566.73;411.53;;;16.00;42.30;;;;;;4958234;29;20481;-62
2021/04/27 08:16:37;;;;;;;574.80;442.70;;;17.60;42.20;;;;;;4957334;28;20562;-63
2021/04/27 08:19:06;;;;;;;576.17;442.20;;;17.50;39.00;;;;;;4957384;29;20458;-60
2021/04/27 08:21:35;;;;;;;575.60;433.37;;;16.90;38.90;;;;;;4958138;28;20451;-62
2021/04/27 08:24:03;;;;;;;563.53;407.07;;;16.50;39.70;;;;;;4957957;28;20478;-62
2021/04/27 08:26:51;;;;;;;574.93;407.87;;;15.70;41.00;;;;;;4961000;28;20454;-62
2021/04/27 08:29:19;;;;;;;572.37;432.80;;;16.40;42.20;;;;;;4962165;28;20441;-61
2021/04/27 08:31:56;;;;;;;609.83;534.63;;;17.50;41.00;;;;;;4977498;28;20481;-61
2021/04/27 08:34:25;;;;;;;663.20;592.50;;;18.90;38.70;;;;;;4981341;28;20473;-61
2021/04/27 08:36:52;;;;;;;762.07;688.87;;;17.80;38.30;;;;;;4964544;28;20441;-61
2021/04/27 08:42:14;;;;;;;863.60;785.93;;;19.80;36.10;;;;;;4981584;28;20450;-60
2021/04/27 08:44:42;;;;;;;876.03;805.73;;;19.80;35.80;;;;;;4981369;28;20416;-60
2021/04/27 08:47:10;;;;;;;863.63;785.77;;;18.70;36.80;;;;;;4980837;28;20576;-60
2021/04/27 08:49:38;;;;;;;902.40;823.03;;;19.20;37.90;;;;;;4981657;28;20476;-65
2021/04/27 08:52:06;;;;;;;1180.03;999.90;;;19.90;36.20;;;;;;4980287;28;20436;-60
2021/04/27 08:54:35;;;;;;;1210.35;999.90;;;19.80;36.80;;;;;;4962983;28;21008;-60
2021/04/27 08:57:03;;;;;;;1227.38;999.90;;;19.80;36.60;;;;;;4980735;28;20864;-62
2021/04/27 08:59:32;;;;;;;939.03;859.13;;;19.60;35.30;;;;;;4981452;28;20195;-61
2021/04/27 09:02:00;;;;;;;853.60;776.37;;;17.70;37.60;;;;;;4980009;28;20503;-63
2021/04/27 09:04:42;;;;;;;836.93;761.00;;;17.90;39.40;;;;;;4980750;28;20457;-60
2021/04/27 09:07:12;;;;;;;897.60;818.70;;;19.00;39.20;;;;;;4981134;28;20453;-60
2021/04/27 09:09:43;;;;;;;956.50;875.70;;;22.20;35.90;;;;;;4980937;28;20434;-61
2021/04/27 09:12:11;;;;;;;967.10;886.00;;;21.80;34.20;;;;;;4980257;28;20971;-60
2021/04/27 09:14:42;;;;;;;956.50;875.70;;;21.90;33.70;;;;;;4980090;28;20530;-60
2021/04/27 09:17:11;;;;;;;935.40;855.53;;;20.80;33.20;;;;;;4979358;28;20489;-61
2021/04/27 09:19:44;;;;;;;922.43;842.67;;;19.40;35.10;;;;;;4982029;28;20456;-60
2021/04/27 09:22:17;;;;;;;920.47;842.17;;;19.00;35.90;;;;;;4982040;28;20849;-66
2021/04/27 09:24:47;;;;;;;906.07;828.00;;;20.30;35.00;;;;;;4980500;28;20446;-65
2021/04/27 09:27:28;;;;;;;893.93;815.77;;;20.70;32.70;;;;;;4964254;28;20430;-61
2021/04/27 09:29:59;;;;;;;899.43;820.83;;;21.30;34.50;;;;;;4980474;28;20794;-62
2021/04/27 09:32:32;;;;;;;924.77;845.30;;;19.10;34.00;;;;;;4979754;28;20486;-61
2021/04/27 09:35:24;;;;;;;887.33;808.43;;;18.80;34.90;;;;;;4980721;28;20524;-61
2021/04/27 09:38:15;;;;;;;897.10;817.70;;;19.10;36.20;;;;;;4971757;28;20461;-60
2021/04/27 09:40:46;;;;;;;880.23;801.73;;;18.80;36.30;;;;;;4961763;28;20451;-60
2021/04/27 09:43:16;;;;;;;896.60;817.60;;;19.20;35.50;;;;;;4961082;29;20450;-60
2021/04/27 09:45:48;;;;;;;900.80;822.00;;;20.00;35.30;;;;;;4959919;28;20471;-61
2021/04/27 09:48:29;;;;;;;948.70;867.33;;;20.60;33.10;;;;;;4961166;29;20430;-61
2021/04/27 09:51:16;;;;;;;852.87;777.10;;;21.00;33.20;;;;;;4960967;29;20446;-61
2021/04/27 09:54:05;;;;;;;848.53;772.17;;;19.10;35.40;;;;;;4960720;29;20468;-61
2021/04/27 09:56:39;;;;;;;817.57;741.87;;;18.30;37.20;;;;;;4960779;29;20949;-61
2021/04/27 09:59:09;;;;;;;781.57;707.37;;;17.60;39.00;;;;;;4960640;29;20435;-62
2021/04/27 10:01:40;;;;;;;803.33;728.50;;;17.90;39.20;;;;;;4952938;28;20477;-61
2021/04/27 10:04:08;;;;;;;843.57;767.97;;;19.60;38.10;;;;;;4980422;28;20497;-62
2021/04/27 10:06:41;;;;;;;832.00;757.63;;;21.20;34.30;;;;;;4979730;28;20464;-61
2021/04/27 10:09:10;;;;;;;840.27;765.97;;;19.90;34.40;;;;;;4979940;28;20471;-61
2021/04/27 10:11:39;;;;;;;798.70;724.90;;;18.90;36.30;;;;;;4980413;28;20440;-61
2021/04/27 10:14:09;;;;;;;797.87;724.67;;;18.60;37.70;;;;;;4980716;28;20475;-64
2021/04/27 10:16:39;;;;;;;832.30;758.20;;;19.40;38.00;;;;;;4979292;28;20528;-60
2021/04/27 10:19:12;;;;;;;827.93;753.23;;;19.50;36.30;;;;;;4963389;28;20433;-61
2021/04/27 10:21:39;;;;;;;849.73;773.53;;;18.60;36.70;;;;;;4980503;28;20441;-61
2021/04/27 10:24:12;;;;;;;815.43;740.83;;;18.60;36.70;;;;;;4980995;28;20448;-60
2021/04/27 10:27:05;;;;;;;802.57;727.60;;;18.10;38.10;;;;;;4980769;28;20438;-66
2021/04/27 10:29:33;;;;;;;826.87;751.40;;;18.60;36.80;;;;;;4980382;28;20446;-65
2021/04/27 10:32:20;;;;;;;832.17;756.70;;;18.10;38.30;;;;;;4979386;28;20545;-62
2021/04/27 10:35:12;;;;;;;786.97;712.97;;;18.90;37.90;;;;;;4980611;28;20881;-61
2021/04/27 10:38:01;;;;;;;796.30;722.03;;;18.20;37.40;;;;;;4981465;28;20485;-61
2021/04/27 10:41:01;;;;;;;823.13;748.23;;;18.30;37.60;;;;;;4962488;28;20840;-61
2021/04/27 10:43:53;;;;;;;824.53;748.93;;;19.00;36.90;;;;;;4979715;28;20964;-62
2021/04/27 10:46:56;;;;;;;850.63;774.67;;;19.80;36.60;;;;;;4976741;28;20950;-61
2021/04/27 10:49:34;;;;;;;823.17;747.83;;;19.20;35.40;;;;;;4979253;28;20448;-60
2021/04/27 10:52:04;;;;;;;798.20;723.33;;;18.20;37.80;;;;;;4962694;28;20438;-61
2021/04/27 10:54:35;;;;;;;839.40;763.43;;;18.00;39.60;;;;;;4979927;28;20483;-65
2021/04/27 10:57:22;;;;;;;861.03;784.37;;;18.20;38.30;;;;;;4980867;28;20550;-67
2021/04/27 10:59:52;;;;;;;901.13;822.97;;;19.80;37.20;;;;;;4980576;28;20469;-64
2021/04/27 11:02:24;;;;;;;920.73;841.53;;;20.00;37.20;;;;;;4981108;28;20513;-65
2021/04/27 11:04:58;;;;;;;910.57;832.17;;;20.20;36.70;;;;;;4982508;28;20452;-66
2021/04/27 11:07:46;;;;;;;902.77;824.60;;;18.50;36.90;;;;;;4996712;28;20438;-73
2021/04/27 11:10:22;;;;;;;899.33;821.33;;;19.20;38.80;;;;;;4981324;28;20472;-68
2021/04/27 11:13:09;;;;;;;892.80;815.17;;;18.50;39.20;;;;;;4981404;28;20430;-66
2021/04/27 11:15:39;;;;;;;881.93;804.20;;;19.80;38.50;;;;;;4979028;28;20864;-66
2021/04/27 11:18:17;;;;;;;836.43;760.33;;;19.10;37.00;;;;;;4979313;28;20450;-66
2021/04/27 11:20:55;;;;;;;860.20;783.60;;;18.80;37.20;;;;;;4994335;28;20438;-66
2021/04/27 11:23:39;;;;;;;875.63;798.37;;;19.30;36.00;;;;;;4979786;28;20477;-67
2021/04/27 11:26:42;;;;;;;894.80;815.90;;;18.60;36.80;;;;;;4977556;28;20787;-66
2021/04/27 11:29:16;;;;;;;890.17;811.97;;;18.60;38.80;;;;;;4991759;28;20996;-64
2021/04/27 11:32:11;;;;;;;876.33;798.67;;;19.00;38.60;;;;;;4978156;28;20481;-69
2021/04/27 11:34:58;;;;;;;846.23;769.63;;;18.50;38.80;;;;;;4979306;28;20931;-66
2021/04/27 11:37:29;;;;;;;845.93;769.23;;;19.00;39.50;;;;;;4979072;28;20534;-66
2021/04/27 11:39:59;;;;;;;858.97;781.97;;;18.60;38.00;;;;;;4962053;28;20454;-65
2021/04/27 11:42:53;;;;;;;806.77;731.20;;;18.20;38.80;;;;;;4980467;28;20439;-67
2021/04/27 11:45:23;;;;;;;831.03;754.73;;;17.90;38.70;;;;;;4978539;28;20520;-67
2021/04/27 11:47:51;;;;;;;821.27;745.57;;;18.50;39.00;;;;;;4979123;28;20441;-65
2021/04/27 11:50:20;;;;;;;806.90;731.40;;;18.30;39.60;;;;;;4961594;28;20457;-66
2021/04/27 11:52:54;;;;;;;758.60;684.40;;;17.40;40.40;;;;;;4960793;28;20450;-66
2021/04/27 11:55:38;;;;;;;791.17;715.97;;;17.50;41.30;;;;;;4978828;28;20879;-66
2021/04/27 11:58:12;;;;;;;831.23;755.13;;;17.90;40.80;;;;;;4962629;28;21010;-70
2021/04/27 12:00:47;;;;;;;864.03;786.23;;;18.70;39.20;;;;;;4961182;28;20474;-66
2021/04/27 12:03:18;;;;;;;812.33;737.40;;;19.40;38.70;;;;;;4983348;28;20437;-66
2021/04/27 12:05:47;;;;;;;859.43;782.87;;;18.80;39.40;;;;;;4983212;28;20444;-66
2021/04/27 12:08:21;;;;;;;850.87;774.30;;;19.00;39.30;;;;;;4983187;28;20444;-66
2021/04/27 12:11:04;;;;;;;841.00;763.70;;;18.00;38.40;;;;;;4982790;28;20424;-66
2021/04/27 12:13:32;;;;;;;807.70;731.80;;;17.60;40.00;;;;;;4982504;28;20434;-67
2021/04/27 12:16:05;;;;;;;850.77;773.83;;;17.50;39.60;;;;;;4981500;28;20981;-67
2021/04/27 12:18:56;;;;;;;823.87;747.43;;;18.30;40.20;;;;;;4982430;28;20429;-67
2021/04/27 12:21:31;;;;;;;760.67;685.97;;;17.70;40.00;;;;;;4965681;28;20472;-67
2021/04/27 12:24:09;;;;;;;765.20;689.30;;;17.10;40.50;;;;;;4948875;28;20622;-67
2021/04/27 12:27:02;;;;;;;806.60;729.23;;;17.30;40.60;;;;;;4980203;28;20503;-67
2021/04/27 12:29:33;;;;;;;774.33;698.77;;;18.40;39.50;;;;;;4948936;28;20488;-67
2021/04/27 12:32:07;;;;;;;762.00;686.90;;;17.60;39.00;;;;;;4980936;28;20478;-67
2021/04/27 12:34:36;;;;;;;773.37;698.13;;;17.00;39.30;;;;;;4997447;28;20994;-70
2021/04/27 12:37:04;;;;;;;773.97;698.67;;;17.80;39.80;;;;;;4964658;28;20433;-67
2021/04/27 12:39:35;;;;;;;773.33;698.43;;;17.80;38.60;;;;;;4965082;28;20446;-67
2021/04/27 12:42:17;;;;;;;761.63;686.47;;;17.70;40.60;;;;;;4996882;28;20949;-67
2021/04/27 12:44:52;;;;;;;770.50;695.35;;;17.40;41.40;;;;;;4964607;28;21002;-67
2021/04/27 12:47:23;;;;;;;798.20;721.80;;;17.70;40.40;;;;;;4981204;28;20498;-67
2021/04/27 12:50:06;;;;;;;797.93;721.73;;;18.30;39.80;;;;;;4964181;28;20890;-66
2021/04/27 12:52:36;;;;;;;802.10;725.67;;;18.00;40.90;;;;;;4963970;28;20437;-67
2021/04/27 12:55:07;;;;;;;765.93;690.83;;;18.00;41.20;;;;;;4981657;28;20559;-65
2021/04/27 12:57:35;;;;;;;788.93;713.07;;;17.80;41.30;;;;;;4981554;28;20859;-66
2021/04/27 13:00:07;;;;;;;795.57;719.63;;;17.40;41.10;;;;;;4995668;28;20484;-67
2021/04/27 13:02:34;;;;;;;831.33;754.37;;;18.00;41.70;;;;;;4981510;28;20484;-66
2021/04/27 13:05:05;;;;;;;816.03;739.63;;;18.10;40.40;;;;;;4981761;28;20477;-66
2021/04/27 13:07:34;;;;;;;832.93;756.27;;;18.40;41.00;;;;;;4981319;28;20438;-65
2021/04/27 13:10:08;;;;;;;817.87;741.33;;;18.60;40.80;;;;;;4981535;28;20462;-66
2021/04/27 13:12:37;;;;;;;815.63;739.43;;;17.60;39.50;;;;;;4980673;28;21120;-67
2021/04/27 13:15:08;;;;;;;778.40;703.07;;;17.60;40.50;;;;;;4995720;28;20470;-66
2021/04/27 13:17:40;;;;;;;761.87;686.70;;;17.50;39.70;;;;;;4980033;28;20476;-68
2021/04/27 13:20:15;;;;;;;771.80;696.23;;;17.00;39.40;;;;;;4996230;28;20437;-66
2021/04/27 13:22:48;;;;;;;715.00;641.20;;;16.90;39.70;;;;;;4980628;28;20440;-67
2021/04/27 13:25:18;;;;;;;719.53;645.67;;;16.80;43.10;;;;;;4981206;28;20433;-66